createdAt,value
2019-01-18T00:00:12.462Z,4.07
2019-01-18T00:02:42.326Z,4.50
2019-01-18T00:05:12.263Z,4.97
2019-01-18T00:07:42.399Z,4.83
2019-01-18T00:10:12.261Z,4.27
2019-01-18T00:12:42.314Z,7.63
2019-01-18T00:15:12.771Z,5.00
2019-01-18T00:17:43.018Z,8.47
2019-01-18T00:20:13.635Z,5.43
2019-01-18T00:22:43.578Z,5.13
2019-01-18T00:25:14.021Z,5.90
2019-01-18T00:27:44.163Z,4.93
2019-01-18T00:30:14.421Z,7.13
2019-01-18T00:32:44.475Z,6.53
2019-01-18T00:35:14.428Z,10.83
2019-01-18T00:37:44.130Z,7.93
2019-01-18T00:40:14.426Z,4.27
2019-01-18T00:42:44.283Z,8.00
2019-01-18T00:45:15.247Z,6.17
2019-01-18T00:47:45.035Z,6.23
2019-01-18T00:50:15.942Z,7.77
2019-01-18T00:52:46.123Z,4.93
2019-01-18T00:55:16.000Z,4.70
2019-01-18T00:57:46.109Z,6.53
2019-01-18T01:00:21.736Z,6.33
2019-01-18T01:02:52.341Z,4.57
2019-01-18T01:05:22.883Z,7.13
2019-01-18T01:07:52.771Z,3.60
2019-01-18T01:10:23.414Z,6.73
2019-01-18T01:12:54.210Z,5.10
2019-01-18T01:15:24.690Z,3.30
2019-01-18T01:17:54.582Z,4.93
2019-01-18T01:20:24.678Z,3.07
2019-01-18T01:22:54.831Z,5.80
2019-01-18T01:25:24.783Z,4.47
2019-01-18T01:27:54.918Z,5.50
2019-01-18T01:30:26.026Z,5.03
2019-01-18T01:32:56.457Z,5.07
2019-01-18T01:35:26.566Z,4.27
2019-01-18T01:37:56.541Z,2.83
2019-01-18T01:40:29.662Z,6.80
2019-01-18T01:42:59.514Z,4.37
2019-01-18T01:45:29.761Z,3.13
2019-01-18T01:47:59.548Z,5.50
2019-01-18T01:50:29.425Z,6.87
2019-01-18T01:52:59.468Z,6.60
2019-01-18T01:55:29.362Z,5.47
2019-01-18T01:57:59.786Z,4.73
2019-01-18T02:00:30.023Z,7.77
2019-01-18T02:02:59.907Z,3.93
2019-01-18T02:05:29.766Z,5.60
2019-01-18T02:07:59.851Z,5.97
2019-01-18T02:10:29.826Z,4.30
2019-01-18T02:12:59.945Z,7.50
2019-01-18T02:15:29.883Z,5.13
2019-01-18T02:18:00.315Z,6.63
2019-01-18T02:20:30.413Z,4.83
2019-01-18T02:23:00.458Z,6.17
2019-01-18T02:25:30.603Z,11.30
2019-01-18T02:28:00.735Z,4.90
2019-01-18T02:30:30.888Z,5.70
2019-01-18T02:33:00.688Z,6.13
2019-01-18T02:35:30.573Z,6.30
2019-01-18T02:38:00.650Z,5.00
2019-01-18T02:40:30.501Z,7.20
2019-01-18T02:43:00.182Z,4.80
2019-01-18T02:45:29.997Z,5.27
2019-01-18T02:47:59.762Z,6.37
2019-01-18T02:50:29.670Z,6.63
2019-01-18T02:52:59.704Z,5.13
2019-01-18T02:55:29.476Z,5.93
2019-01-18T02:57:59.492Z,5.87
2019-01-18T03:00:29.512Z,7.13
2019-01-18T03:03:00.120Z,5.00
2019-01-18T03:05:29.968Z,4.97
2019-01-18T03:07:59.735Z,7.97
2019-01-18T03:10:31.208Z,5.40
2019-01-18T03:13:01.031Z,5.20
2019-01-18T03:15:31.496Z,7.10
2019-01-18T03:18:01.498Z,6.23
2019-01-18T03:20:31.643Z,9.23
2019-01-18T03:23:02.219Z,5.73
2019-01-18T03:25:31.915Z,4.63
2019-01-18T03:28:01.950Z,5.90
2019-01-18T03:30:31.948Z,6.47
2019-01-18T03:33:02.126Z,8.20
2019-01-18T03:35:32.025Z,6.13
2019-01-18T03:38:02.153Z,8.33
2019-01-18T03:40:31.987Z,7.07
2019-01-18T03:43:02.012Z,6.77
2019-01-18T03:45:32.029Z,8.10
2019-01-18T03:48:02.559Z,6.03
2019-01-18T03:50:32.371Z,9.13
2019-01-18T03:53:02.425Z,9.17
2019-01-18T03:55:32.178Z,7.53
2019-01-18T03:58:02.205Z,5.87
2019-01-18T04:00:32.347Z,7.27
2019-01-18T04:03:02.635Z,7.13
2019-01-18T04:05:32.677Z,7.30
2019-01-18T04:08:02.516Z,8.03
2019-01-18T04:10:32.493Z,8.60
2019-01-18T04:13:02.257Z,8.60
2019-01-18T04:15:32.015Z,6.37
2019-01-18T04:18:01.731Z,6.73
2019-01-18T04:20:31.726Z,4.23
2019-01-18T04:23:01.475Z,5.97
2019-01-18T04:25:32.530Z,4.80
2019-01-18T04:28:02.261Z,7.30
2019-01-18T04:30:33.670Z,5.30
2019-01-18T04:33:03.897Z,5.53
2019-01-18T04:35:33.654Z,5.43
2019-01-18T04:38:03.483Z,5.93
2019-01-18T04:40:33.249Z,6.43
2019-01-18T04:43:03.311Z,8.67
2019-01-18T04:45:33.981Z,6.50
2019-01-18T04:48:09.325Z,8.67
2019-01-18T04:50:39.729Z,4.40
2019-01-18T04:53:09.458Z,5.40
2019-01-18T04:55:39.264Z,6.03
2019-01-18T04:58:08.958Z,7.20
2019-01-18T05:00:41.024Z,6.30
2019-01-18T05:03:10.476Z,12.47
2019-01-18T05:05:40.321Z,8.37
2019-01-18T05:08:10.094Z,8.30
2019-01-18T05:10:39.870Z,11.33
2019-01-18T05:13:10.210Z,8.93
2019-01-18T05:15:40.146Z,7.77
2019-01-18T05:18:09.910Z,6.13
2019-01-18T05:20:39.721Z,5.50
2019-01-18T05:23:09.438Z,6.43
2019-01-18T05:25:39.155Z,6.13
2019-01-18T05:28:09.041Z,4.97
2019-01-18T05:30:39.054Z,4.97
2019-01-18T05:33:09.189Z,6.67
2019-01-18T05:35:39.278Z,10.83
2019-01-18T05:38:09.061Z,6.57
2019-01-18T05:40:39.039Z,5.97
2019-01-18T05:43:09.463Z,14.03
2019-01-18T05:45:39.490Z,5.97
2019-01-18T05:48:09.458Z,7.05
2019-01-18T05:50:39.331Z,7.23
2019-01-18T05:53:09.790Z,7.43
2019-01-18T05:55:39.483Z,5.70
2019-01-18T05:58:09.207Z,5.63
2019-01-18T06:00:58.617Z,7.23
2019-01-18T06:03:28.425Z,8.50
2019-01-18T06:05:58.559Z,6.83
2019-01-18T06:08:29.047Z,6.20
2019-01-18T06:11:02.408Z,8.07
2019-01-18T06:13:33.310Z,5.60
2019-01-18T06:16:03.985Z,5.80
2019-01-18T06:18:34.706Z,6.73
2019-01-18T06:21:05.545Z,7.27
2019-01-18T06:23:35.439Z,6.33
2019-01-18T06:26:05.554Z,6.90
2019-01-18T06:28:35.354Z,5.63
2019-01-18T06:31:05.059Z,5.23
2019-01-18T06:33:35.092Z,7.03
2019-01-18T06:36:05.418Z,6.13
2019-01-18T06:38:35.322Z,7.57
2019-01-18T06:41:30.766Z,9.80
2019-01-18T06:44:00.575Z,6.40
2019-01-18T06:46:30.261Z,7.70
2019-01-18T06:49:00.726Z,7.13
2019-01-18T06:51:31.010Z,6.93
2019-01-18T06:54:00.706Z,5.90
2019-01-18T06:56:30.491Z,6.10
2019-01-18T06:59:00.546Z,5.77
2019-01-18T07:01:30.629Z,5.67
2019-01-18T07:04:00.842Z,9.67
2019-01-18T07:06:30.895Z,14.63
2019-01-18T07:09:00.613Z,8.63
2019-01-18T07:11:30.373Z,5.27
2019-01-18T07:14:00.170Z,6.00
2019-01-18T07:16:29.869Z,6.33
2019-01-18T07:18:59.549Z,6.80
2019-01-18T07:21:29.450Z,5.20
2019-01-18T07:23:59.294Z,5.77
2019-01-18T07:26:29.062Z,4.10
2019-01-18T07:28:58.836Z,6.93
2019-01-18T07:31:28.923Z,8.07
2019-01-18T07:33:58.711Z,8.03
2019-01-18T07:36:28.587Z,5.50
2019-01-18T07:39:00.604Z,8.27
2019-01-18T07:41:30.143Z,7.67
2019-01-18T07:43:59.898Z,10.30
2019-01-18T07:46:29.674Z,12.27
2019-01-18T07:48:59.478Z,5.63
2019-01-18T07:51:29.346Z,7.93
2019-01-18T07:53:59.342Z,4.63
2019-01-18T07:56:29.202Z,11.70
2019-01-18T07:58:59.363Z,6.50
2019-01-18T08:01:29.296Z,7.27
2019-01-18T08:03:59.506Z,4.67
2019-01-18T08:06:29.564Z,7.30
2019-01-18T08:08:59.927Z,5.10
2019-01-18T08:11:30.148Z,7.83
2019-01-18T08:14:00.214Z,11.67
2019-01-18T08:16:29.990Z,8.93
2019-01-18T08:19:00.062Z,8.37
2019-01-18T08:21:29.868Z,6.67
2019-01-18T08:23:59.672Z,7.80
2019-01-18T08:26:29.515Z,5.73
2019-01-18T08:28:59.259Z,6.10
2019-01-18T08:31:29.243Z,10.17
2019-01-18T08:33:59.182Z,8.30
2019-01-18T08:36:28.942Z,11.37
2019-01-18T08:38:58.751Z,9.83
2019-01-18T08:41:28.549Z,37.53
2019-01-18T08:43:58.399Z,8.40
2019-01-18T08:46:28.450Z,7.87
2019-01-18T08:48:58.311Z,7.27
2019-01-18T08:51:28.000Z,7.60
2019-01-18T08:53:59.178Z,8.73
2019-01-18T08:56:28.947Z,7.90
2019-01-18T08:58:59.225Z,8.40
2019-01-18T09:01:35.538Z,6.27
2019-01-18T09:04:00.490Z,79.47
2019-01-18T09:06:30.211Z,9.33
2019-01-18T09:08:59.955Z,8.57
2019-01-18T09:11:29.794Z,10.57
2019-01-18T09:13:59.798Z,8.23
2019-01-18T09:16:29.815Z,9.37
2019-01-18T09:18:59.845Z,8.43
2019-01-18T09:21:29.572Z,7.70
2019-01-18T09:23:59.267Z,7.67
2019-01-18T09:26:29.262Z,8.43
2019-01-18T09:28:59.413Z,8.33
2019-01-18T09:31:29.172Z,7.10
2019-01-18T09:33:59.407Z,7.50
2019-01-18T09:36:29.272Z,6.53
2019-01-18T09:38:59.141Z,8.73
2019-01-18T09:41:29.253Z,6.57
2019-01-18T09:43:59.539Z,7.23
2019-01-18T09:46:29.588Z,5.33
2019-01-18T09:48:59.330Z,8.90
2019-01-18T09:51:29.201Z,7.63
2019-01-18T09:53:58.894Z,7.57
2019-01-18T09:56:28.998Z,6.73
2019-01-18T09:58:58.810Z,6.30
2019-01-18T10:01:28.606Z,7.53
2019-01-18T10:03:58.594Z,6.20
2019-01-18T10:06:28.308Z,6.57
2019-01-18T10:08:58.335Z,8.87
2019-01-18T10:11:28.360Z,9.20
2019-01-18T10:13:58.151Z,6.03
2019-01-18T10:16:28.021Z,6.63
2019-01-18T10:18:57.733Z,4.93
2019-01-18T10:21:27.891Z,7.30
2019-01-18T10:23:57.817Z,5.83
2019-01-18T10:26:27.599Z,8.90
2019-01-18T10:28:57.594Z,9.47
2019-01-18T10:31:27.711Z,6.60
2019-01-18T10:33:57.492Z,11.67
2019-01-18T10:36:27.352Z,8.67
2019-01-18T10:38:57.095Z,10.87
2019-01-18T10:41:26.811Z,7.33
2019-01-18T10:43:56.516Z,6.80
2019-01-18T10:46:26.274Z,9.40
2019-01-18T10:48:56.335Z,4.53
2019-01-18T10:51:26.039Z,6.10
2019-01-18T10:53:55.718Z,5.73
2019-01-18T10:56:25.557Z,7.53
2019-01-18T10:58:55.352Z,7.17
2019-01-18T11:01:25.458Z,12.13
2019-01-18T11:03:55.318Z,4.70
2019-01-18T11:06:25.095Z,6.63
2019-01-18T11:08:55.057Z,8.43
2019-01-18T11:11:24.820Z,8.33
2019-01-18T11:13:54.784Z,9.27
2019-01-18T11:16:24.805Z,8.00
2019-01-18T11:18:54.578Z,11.50
2019-01-18T11:21:24.706Z,11.30
2019-01-18T11:23:54.557Z,7.20
2019-01-18T11:26:24.342Z,6.47
2019-01-18T11:28:54.047Z,7.70
2019-01-18T11:31:24.070Z,8.00
2019-01-18T11:33:53.905Z,9.13
2019-01-18T11:36:23.661Z,8.07
2019-01-18T11:38:53.807Z,8.17
2019-01-18T11:41:23.595Z,10.37
2019-01-18T11:43:53.731Z,7.50
2019-01-18T11:46:23.932Z,11.17
2019-01-18T11:48:53.743Z,6.87
2019-01-18T11:51:23.779Z,6.50
2019-01-18T11:53:53.841Z,8.17
2019-01-18T11:56:23.729Z,7.73
2019-01-18T11:58:53.935Z,14.17
2019-01-18T12:01:23.704Z,10.67
2019-01-18T12:03:53.499Z,6.83
2019-01-18T12:06:23.261Z,8.20
2019-01-18T12:08:53.143Z,9.90
2019-01-18T12:11:22.951Z,14.30
2019-01-18T12:13:52.826Z,10.70
2019-01-18T12:16:22.843Z,8.87
2019-01-18T12:18:53.120Z,8.40
2019-01-18T12:21:22.908Z,9.67
2019-01-18T12:23:52.714Z,10.73
2019-01-18T12:26:22.802Z,10.57
2019-01-18T12:28:52.581Z,12.20
2019-01-18T12:31:22.611Z,9.07
2019-01-18T12:33:52.698Z,10.40
2019-01-18T12:36:22.548Z,8.63
2019-01-18T12:38:52.362Z,11.60
2019-01-18T12:41:22.180Z,10.83
2019-01-18T12:43:52.002Z,13.07
2019-01-18T12:46:21.754Z,11.33
2019-01-18T12:48:51.717Z,9.10
2019-01-18T12:51:21.554Z,13.00
2019-01-18T12:53:51.589Z,8.70
2019-01-18T12:56:21.512Z,10.13
2019-01-18T12:58:51.641Z,8.80
2019-01-18T13:01:21.671Z,12.27
2019-01-18T13:03:51.454Z,8.07
2019-01-18T13:06:21.544Z,10.83
2019-01-18T13:08:51.238Z,6.83
2019-01-18T13:11:21.283Z,7.47
2019-01-18T13:13:51.090Z,9.37
2019-01-18T13:16:44.867Z,11.83
2019-01-18T13:19:20.028Z,10.37
2019-01-18T13:21:49.820Z,8.13
2019-01-18T13:24:19.662Z,8.83
2019-01-18T13:26:49.545Z,8.23
2019-01-18T13:29:19.725Z,12.77
2019-01-18T13:31:49.589Z,9.53
2019-01-18T13:34:19.564Z,15.50
2019-01-18T13:36:49.531Z,8.07
2019-01-18T13:39:19.409Z,7.17
2019-01-18T13:41:49.666Z,8.10
2019-01-18T13:44:19.488Z,9.20
2019-01-18T13:46:49.312Z,11.53
2019-01-18T13:49:19.275Z,8.07
2019-01-18T13:51:49.141Z,8.77
2019-01-18T13:54:18.910Z,7.90
2019-01-18T13:56:49.193Z,6.87
2019-01-18T13:59:18.998Z,10.07
2019-01-18T14:01:49.035Z,9.77
2019-01-18T14:04:18.846Z,8.23
2019-01-18T14:06:48.794Z,9.40
2019-01-18T14:09:18.903Z,10.40
2019-01-18T14:11:48.772Z,11.80
2019-01-18T14:14:19.415Z,15.33
2019-01-18T14:16:49.165Z,9.80
2019-01-18T14:19:19.133Z,14.60
2019-01-18T14:21:49.071Z,14.30
2019-01-18T14:24:18.853Z,11.17
2019-01-18T14:26:48.861Z,11.03
2019-01-18T14:29:18.545Z,8.67
2019-01-18T14:31:48.529Z,10.17
2019-01-18T14:34:18.489Z,10.57
2019-01-18T14:36:48.545Z,9.80
2019-01-18T14:39:18.261Z,10.03
2019-01-18T14:41:48.034Z,9.13
2019-01-18T14:44:17.899Z,11.43
2019-01-18T14:46:47.937Z,14.03
2019-01-18T14:49:17.778Z,10.17
2019-01-18T14:51:47.641Z,16.77
2019-01-18T14:54:17.457Z,11.13
2019-01-18T14:56:47.243Z,7.97
2019-01-18T14:59:17.088Z,9.47
2019-01-18T15:01:47.092Z,10.73
2019-01-18T15:04:17.051Z,20.87
2019-01-18T15:06:46.875Z,11.67
2019-01-18T15:09:16.747Z,20.47
2019-01-18T15:11:46.577Z,13.67
2019-01-18T15:14:16.525Z,10.80
2019-01-18T15:16:46.792Z,9.83
2019-01-18T15:19:16.631Z,13.97
2019-01-18T15:21:46.361Z,12.00
2019-01-18T15:24:16.254Z,13.63
2019-01-18T15:26:46.104Z,13.43
2019-01-18T15:29:16.070Z,14.53
2019-01-18T15:31:45.998Z,15.03
2019-01-18T15:34:16.031Z,20.07
2019-01-18T15:36:45.923Z,14.43
2019-01-18T15:39:15.922Z,19.20
2019-01-18T15:41:46.045Z,20.47
2019-01-18T15:44:15.898Z,20.90
2019-01-18T15:46:45.709Z,18.53
2019-01-18T15:49:15.743Z,20.00
2019-01-18T15:51:45.758Z,17.77
2019-01-18T15:54:16.214Z,17.37
2019-01-18T15:56:46.062Z,19.63
2019-01-18T15:59:15.854Z,19.17
2019-01-18T16:01:45.942Z,12.80
2019-01-18T16:04:15.809Z,17.00
2019-01-18T16:06:45.611Z,16.20
2019-01-18T16:09:15.631Z,15.23
2019-01-18T16:11:45.891Z,17.53
2019-01-18T16:14:15.615Z,17.63
2019-01-18T16:16:55.039Z,17.23
2019-01-18T16:19:24.855Z,17.23
2019-01-18T16:21:54.846Z,18.60
2019-01-18T16:24:24.719Z,17.33
2019-01-18T16:26:54.708Z,18.67
2019-01-18T16:29:24.510Z,19.10
2019-01-18T16:31:54.558Z,16.97
2019-01-18T16:34:25.219Z,21.30
2019-01-18T16:36:55.379Z,19.83
2019-01-18T16:39:25.684Z,20.57
2019-01-18T16:41:55.498Z,16.53
2019-01-18T16:44:25.387Z,15.67
2019-01-18T16:46:55.537Z,16.53
2019-01-18T16:49:25.240Z,18.07
2019-01-18T16:51:55.070Z,21.23
2019-01-18T16:54:25.135Z,29.30
2019-01-18T16:56:54.970Z,26.93
2019-01-18T16:59:25.122Z,30.00
2019-01-18T17:01:54.904Z,42.43
2019-01-18T17:04:25.199Z,30.77
2019-01-18T17:06:56.489Z,27.90
2019-01-18T17:09:35.738Z,26.53
2019-01-18T17:12:06.108Z,25.63
2019-01-18T17:14:35.995Z,29.33
2019-01-18T17:17:05.978Z,48.50
2019-01-18T17:19:36.010Z,46.77
2019-01-18T17:22:06.056Z,24.10
2019-01-18T17:24:35.756Z,23.97
2019-01-18T17:27:05.635Z,21.20
2019-01-18T17:29:35.660Z,37.30
2019-01-18T17:32:05.481Z,57.40
2019-01-18T17:34:35.505Z,39.80
2019-01-18T17:37:15.860Z,35.13
2019-01-18T17:40:02.819Z,27.80
2019-01-18T17:43:15.046Z,31.90
2019-01-18T17:46:24.090Z,36.27
2019-01-18T17:49:26.490Z,79.80
2019-01-18T17:52:37.888Z,47.93
2019-01-18T17:55:54.717Z,35.50
2019-01-18T17:59:00.778Z,27.90
2019-01-18T18:02:05.334Z,26.73
2019-01-18T18:04:57.547Z,28.47
2019-01-18T18:08:08.496Z,26.50
2019-01-18T18:11:04.536Z,66.33
2019-01-18T18:14:22.378Z,57.07
2019-01-18T18:17:24.563Z,74.07
2019-01-18T18:20:30.730Z,53.17
2019-01-18T18:24:06.298Z,35.37
2019-01-18T18:27:17.554Z,30.43
2019-01-18T18:30:16.374Z,33.20
2019-01-18T18:33:39.390Z,33.23
2019-01-18T18:36:44.876Z,28.03
2019-01-18T18:39:57.832Z,30.43
2019-01-18T18:42:58.269Z,27.53
2019-01-18T18:45:50.290Z,15.93
2019-01-18T18:49:04.307Z,17.37
2019-01-18T18:52:21.319Z,21.13
2019-01-18T18:55:19.146Z,26.60
2019-01-18T18:58:34.995Z,24.33
2019-01-18T19:01:56.624Z,16.73
2019-01-18T19:04:55.983Z,16.03
2019-01-18T19:07:54.553Z,16.53
2019-01-18T19:11:05.698Z,13.83
2019-01-18T19:14:15.583Z,12.83
2019-01-18T19:17:22.582Z,15.13
2019-01-18T19:20:28.114Z,19.93
2019-01-18T19:23:24.022Z,18.10
2019-01-18T19:26:20.451Z,15.77
2019-01-18T19:29:27.357Z,16.53
2019-01-18T19:32:35.600Z,16.77
2019-01-18T19:35:33.543Z,14.40
2019-01-18T19:38:16.826Z,18.47
2019-01-18T19:41:11.736Z,16.93
2019-01-18T19:44:25.833Z,20.17
2019-01-18T19:47:11.442Z,13.17
2019-01-18T19:50:19.656Z,16.23
2019-01-18T19:53:29.378Z,19.03
2019-01-18T19:56:08.751Z,12.03
2019-01-18T19:59:18.492Z,11.77
2019-01-18T20:02:25.673Z,11.83
2019-01-18T20:05:26.974Z,13.97
2019-01-18T20:08:41.170Z,9.47
2019-01-18T20:11:49.781Z,10.77
2019-01-18T20:14:54.107Z,11.43
2019-01-18T20:17:46.974Z,12.70
2019-01-18T20:21:11.888Z,11.57
2019-01-18T20:24:14.674Z,9.53
2019-01-18T20:27:29.000Z,10.43
2019-01-18T20:30:30.228Z,19.03
2019-01-18T20:33:14.523Z,24.33
2019-01-18T20:36:10.736Z,27.30
2019-01-18T20:39:14.870Z,24.30
2019-01-18T20:42:13.950Z,20.20
2019-01-18T20:45:07.063Z,21.50
2019-01-18T20:48:30.357Z,19.00
2019-01-18T20:51:32.238Z,25.50
2019-01-18T20:54:44.515Z,25.10
2019-01-18T20:58:03.662Z,19.67
2019-01-18T21:01:01.189Z,16.90
2019-01-18T21:03:50.719Z,15.43
2019-01-18T21:06:51.923Z,11.73
2019-01-18T21:09:36.982Z,20.57
2019-01-18T21:12:48.262Z,16.27
2019-01-18T21:16:01.517Z,16.23
2019-01-18T21:19:02.953Z,16.43
2019-01-18T21:22:13.055Z,14.00
2019-01-18T21:25:28.141Z,12.83
2019-01-18T21:28:35.007Z,11.53
2019-01-18T21:31:21.260Z,24.73
2019-01-18T21:34:07.457Z,33.10
2019-01-18T21:37:23.783Z,30.77
2019-01-18T21:40:05.602Z,32.40
2019-01-18T21:42:56.515Z,24.67
2019-01-18T21:45:52.788Z,22.57
2019-01-18T21:48:37.186Z,32.93
2019-01-18T21:51:42.301Z,24.47
2019-01-18T21:54:56.278Z,19.03
2019-01-18T21:58:03.019Z,20.20
2019-01-18T22:00:58.552Z,17.03
2019-01-18T22:03:46.820Z,14.80
2019-01-18T22:06:39.570Z,13.33
2019-01-18T22:09:31.419Z,25.50
2019-01-18T22:12:39.690Z,20.77
2019-01-18T22:16:00.317Z,22.07
2019-01-18T22:19:30.527Z,17.77
2019-01-18T22:22:14.004Z,12.37
2019-01-18T22:25:10.333Z,14.47
2019-01-18T22:27:58.179Z,25.27
2019-01-18T22:30:50.734Z,20.63
2019-01-18T22:33:48.848Z,16.63
2019-01-18T22:36:57.043Z,14.97
2019-01-18T22:39:44.683Z,14.03
2019-01-18T22:42:48.042Z,16.83
2019-01-18T22:46:08.614Z,18.57
2019-01-18T22:49:15.353Z,19.67
2019-01-18T22:51:56.737Z,17.27
2019-01-18T22:55:00.692Z,21.50
2019-01-18T22:57:43.220Z,18.07
2019-01-18T23:00:43.624Z,19.47
2019-01-18T23:03:40.182Z,16.50
2019-01-18T23:06:46.994Z,52.97
2019-01-18T23:09:40.382Z,49.07
2019-01-18T23:12:36.519Z,28.13
2019-01-18T23:15:44.990Z,31.87
2019-01-18T23:18:42.686Z,25.43
2019-01-18T23:21:39.517Z,25.73
2019-01-18T23:24:33.649Z,32.07
2019-01-18T23:27:44.574Z,19.50
2019-01-18T23:30:45.164Z,19.83
2019-01-18T23:33:41.598Z,21.70
2019-01-18T23:36:23.819Z,24.87
2019-01-18T23:39:49.213Z,39.23
2019-01-18T23:42:59.552Z,36.87
2019-01-18T23:46:11.708Z,27.20
2019-01-18T23:49:18.224Z,32.20
2019-01-18T23:52:28.647Z,35.10
2019-01-18T23:55:58.538Z,98.43
2019-01-18T23:59:02.226Z,72.50
